createdAt,value
2019-05-17T00:01:07.354Z,21.80
2019-05-17T00:03:39.299Z,20.82
2019-05-17T00:06:11.360Z,22.95
2019-05-17T00:08:43.229Z,19.27
2019-05-17T00:11:16.793Z,19.27
2019-05-17T00:13:48.276Z,26.82
2019-05-17T00:16:19.823Z,19.27
2019-05-17T00:18:53.019Z,22.25
2019-05-17T00:21:27.523Z,21.80
2019-05-17T00:23:58.890Z,20.32
2019-05-17T00:29:02.299Z,20.80
2019-05-17T00:31:33.954Z,24.43
2019-05-17T00:34:07.362Z,27.40
2019-05-17T00:36:38.499Z,22.67
2019-05-17T00:41:42.327Z,25.23
2019-05-17T00:44:13.867Z,23.02
2019-05-17T00:46:46.802Z,23.38
2019-05-17T00:49:18.413Z,23.42
2019-05-17T00:51:50.271Z,21.30
2019-05-17T00:54:22.133Z,21.05
2019-05-17T00:56:56.538Z,22.75
2019-05-17T00:59:27.273Z,22.65
2019-05-17T01:01:59.041Z,22.98
2019-05-17T01:04:30.591Z,22.37
2019-05-17T01:07:02.757Z,22.15
2019-05-17T01:09:36.487Z,25.72
2019-05-17T01:12:07.395Z,22.07
2019-05-17T01:17:09.475Z,21.40
2019-05-17T01:19:41.952Z,26.33
2019-05-17T01:22:13.607Z,23.60
2019-05-17T01:24:46.269Z,24.90
2019-05-17T01:27:17.873Z,26.35
2019-05-17T01:29:49.387Z,25.97
2019-05-17T01:32:21.353Z,21.70
2019-05-17T01:34:53.109Z,24.95
2019-05-17T01:37:24.558Z,24.47
2019-05-17T01:39:57.437Z,26.62
2019-05-17T01:42:30.023Z,23.67
2019-05-17T01:45:01.884Z,29.50
2019-05-17T01:47:33.741Z,27.90
2019-05-17T01:50:07.253Z,28.27
2019-05-17T01:52:39.003Z,26.02
2019-05-17T01:55:10.751Z,23.32
2019-05-17T01:57:42.305Z,30.68
2019-05-17T02:00:17.284Z,26.35
2019-05-17T02:02:50.435Z,25.10
2019-05-17T02:05:21.885Z,24.82
2019-05-17T02:07:53.429Z,25.15
2019-05-17T02:10:27.029Z,25.52
2019-05-17T02:12:58.787Z,29.15
2019-05-17T02:15:30.677Z,25.17
2019-05-17T02:18:02.410Z,30.68
2019-05-17T02:20:34.056Z,30.12
2019-05-17T02:23:07.386Z,27.05
2019-05-17T02:25:39.121Z,30.80
2019-05-17T02:28:12.234Z,26.75
2019-05-17T02:30:44.298Z,24.98
2019-05-17T02:33:16.323Z,25.90
2019-05-17T02:35:47.673Z,26.97
2019-05-17T02:38:22.264Z,24.10
2019-05-17T02:40:53.763Z,22.93
2019-05-17T02:43:26.228Z,27.62
2019-05-17T02:45:57.883Z,29.52
2019-05-17T02:48:29.443Z,27.75
2019-05-17T02:51:03.534Z,24.65
2019-05-17T02:53:34.496Z,24.87
2019-05-17T02:56:06.039Z,25.23
2019-05-17T02:58:37.593Z,25.10
2019-05-17T03:03:43.445Z,28.67
2019-05-17T03:06:13.857Z,27.80
2019-05-17T03:08:46.357Z,23.35
2019-05-17T03:11:18.331Z,26.15
2019-05-17T03:13:52.401Z,24.23
2019-05-17T03:16:23.894Z,28.17
2019-05-17T03:18:55.486Z,28.02
2019-05-17T03:21:27.303Z,28.77
2019-05-17T03:23:58.762Z,26.27
2019-05-17T03:26:32.815Z,27.32
2019-05-17T03:29:03.810Z,20.95
2019-05-17T03:31:42.680Z,24.98
2019-05-17T03:34:15.725Z,27.52
2019-05-17T03:36:46.593Z,22.20
2019-05-17T03:39:16.465Z,26.73
2019-05-17T03:41:48.115Z,22.40
2019-05-17T03:44:22.552Z,24.92
2019-05-17T03:46:53.418Z,25.77
2019-05-17T03:49:25.022Z,23.85
2019-05-17T03:51:57.442Z,22.80
2019-05-17T03:54:32.266Z,26.50
2019-05-17T03:57:03.267Z,23.55
2019-05-17T03:59:35.025Z,33.53
2019-05-17T04:02:07.254Z,24.82
2019-05-17T04:04:38.944Z,22.80
2019-05-17T04:07:12.710Z,29.18
2019-05-17T04:09:43.920Z,26.45
2019-05-17T04:12:15.450Z,25.62
2019-05-17T04:14:47.104Z,23.40
2019-05-17T04:17:18.860Z,21.23
2019-05-17T04:19:53.350Z,25.35
2019-05-17T04:22:24.831Z,23.02
2019-05-17T04:24:56.483Z,26.00
2019-05-17T04:27:28.241Z,22.45
2019-05-17T04:30:03.315Z,29.55
2019-05-17T04:32:33.307Z,25.72
2019-05-17T04:35:06.083Z,28.67
2019-05-17T04:37:38.615Z,24.70
2019-05-17T04:40:13.618Z,24.92
2019-05-17T04:42:44.787Z,25.70
2019-05-17T04:45:16.690Z,26.02
2019-05-17T04:47:48.755Z,24.65
2019-05-17T04:50:23.097Z,24.40
2019-05-17T04:52:54.626Z,24.87
2019-05-17T04:55:26.392Z,23.40
2019-05-17T04:57:57.834Z,29.82
2019-05-17T05:00:29.597Z,26.20
2019-05-17T05:03:03.724Z,27.85
2019-05-17T05:05:34.741Z,22.65
2019-05-17T05:08:06.717Z,23.62
2019-05-17T05:10:38.774Z,27.87
2019-05-17T05:13:13.195Z,24.15
2019-05-17T05:15:44.815Z,22.65
2019-05-17T05:18:16.395Z,23.67
2019-05-17T05:20:48.058Z,22.85
2019-05-17T05:23:23.548Z,25.40
2019-05-17T05:25:53.624Z,28.45
2019-05-17T05:28:25.069Z,27.58
2019-05-17T05:30:56.822Z,21.57
2019-05-17T05:33:28.472Z,19.37
2019-05-17T05:36:02.018Z,21.17
2019-05-17T05:38:33.521Z,20.82
2019-05-17T05:41:06.508Z,21.95
2019-05-17T05:43:38.063Z,18.70
2019-05-17T05:46:11.621Z,20.92
2019-05-17T05:48:43.319Z,27.70
2019-05-17T05:51:15.183Z,20.95
2019-05-17T05:53:47.625Z,24.57
2019-05-17T05:56:19.211Z,21.07
2019-05-17T05:58:52.300Z,23.35
2019-05-17T06:01:24.906Z,19.12
2019-05-17T06:03:56.323Z,25.72
2019-05-17T06:06:27.871Z,22.80
2019-05-17T06:08:59.735Z,26.70
2019-05-17T06:11:32.295Z,22.98
2019-05-17T06:14:03.860Z,18.70
2019-05-17T06:16:35.624Z,24.25
2019-05-17T06:19:07.275Z,17.55
2019-05-17T06:21:39.142Z,18.50
2019-05-17T06:24:11.886Z,26.65
2019-05-17T06:26:43.576Z,53.02
2019-05-17T06:29:15.562Z,30.50
2019-05-17T06:31:47.095Z,20.40
2019-05-17T06:34:18.788Z,19.92
2019-05-17T06:36:52.627Z,23.27
2019-05-17T06:39:23.691Z,16.65
2019-05-17T06:41:56.063Z,19.52
2019-05-17T06:44:27.616Z,19.77
2019-05-17T06:46:59.478Z,29.82
2019-05-17T06:49:31.802Z,16.85
2019-05-17T06:52:05.407Z,23.80
2019-05-17T06:54:36.896Z,20.70
2019-05-17T06:57:08.757Z,22.15
2019-05-17T06:59:40.617Z,30.32
2019-05-17T07:02:12.883Z,21.25
2019-05-17T07:04:44.334Z,20.85
2019-05-17T07:07:30.482Z,22.65
2019-05-17T07:10:02.120Z,16.77
2019-05-17T07:12:33.738Z,22.70
2019-05-17T07:15:07.442Z,16.97
2019-05-17T07:17:40.063Z,17.90
2019-05-17T07:20:12.083Z,20.88
2019-05-17T07:22:43.740Z,19.92
2019-05-17T07:25:15.495Z,17.65
2019-05-17T07:27:47.046Z,17.45
2019-05-17T07:30:19.690Z,16.93
2019-05-17T07:32:51.175Z,18.42
2019-05-17T07:35:22.729Z,19.42
2019-05-17T07:37:54.693Z,16.73
2019-05-17T07:40:26.350Z,19.65
2019-05-17T07:43:10.111Z,22.80
2019-05-17T07:45:31.806Z,21.68
2019-05-17T07:48:03.481Z,23.83
2019-05-17T07:50:35.217Z,16.42
2019-05-17T07:53:09.967Z,21.52
2019-05-17T07:55:41.063Z,16.90
2019-05-17T07:58:12.848Z,17.17
2019-05-17T08:00:44.805Z,23.47
2019-05-17T08:03:20.966Z,16.45
2019-05-17T08:05:53.338Z,23.38
2019-05-17T08:08:25.100Z,21.68
2019-05-17T08:10:56.654Z,20.85
2019-05-17T08:13:31.244Z,17.92
2019-05-17T08:16:01.909Z,20.02
2019-05-17T08:18:33.367Z,18.27
2019-05-17T08:21:05.218Z,16.62
2019-05-17T08:23:36.977Z,17.05
2019-05-17T08:26:10.668Z,17.00
2019-05-17T08:28:42.431Z,18.95
2019-05-17T08:31:14.196Z,16.32
2019-05-17T08:33:45.845Z,16.93
2019-05-17T08:36:17.397Z,19.92
2019-05-17T08:38:50.132Z,17.02
2019-05-17T08:41:21.837Z,17.12
2019-05-17T08:43:53.696Z,16.65
2019-05-17T08:46:25.142Z,18.25
2019-05-17T08:48:56.800Z,15.38
2019-05-17T08:51:30.474Z,16.73
2019-05-17T08:54:02.154Z,15.15
2019-05-17T08:56:33.820Z,20.88
2019-05-17T08:59:05.467Z,15.80
2019-05-17T09:01:39.208Z,17.60
2019-05-17T09:04:10.724Z,23.00
2019-05-17T09:06:42.385Z,16.50
2019-05-17T09:09:14.133Z,19.75
2019-05-17T09:11:45.792Z,18.73
2019-05-17T09:14:17.145Z,15.70
2019-05-17T09:16:50.505Z,16.82
2019-05-17T09:19:22.095Z,21.40
2019-05-17T09:21:53.846Z,15.80
2019-05-17T09:24:25.816Z,17.17
2019-05-17T09:26:59.729Z,17.37
2019-05-17T09:29:30.464Z,19.60
2019-05-17T09:32:02.409Z,14.65
2019-05-17T09:34:33.861Z,15.20
2019-05-17T09:37:05.716Z,17.27
2019-05-17T09:39:37.166Z,20.60
2019-05-17T09:42:10.346Z,20.65
2019-05-17T09:44:41.913Z,17.57
2019-05-17T09:47:13.881Z,13.80
2019-05-17T09:49:45.533Z,15.10
2019-05-17T09:52:19.849Z,18.55
2019-05-17T09:54:50.884Z,16.42
2019-05-17T09:57:22.337Z,19.48
2019-05-17T09:59:55.961Z,17.40
2019-05-17T10:02:27.387Z,12.50
2019-05-17T10:05:00.032Z,13.68
2019-05-17T10:07:31.630Z,15.40
2019-05-17T10:10:05.227Z,16.45
2019-05-17T10:12:36.876Z,15.10
2019-05-17T10:15:09.998Z,21.75
2019-05-17T10:17:41.823Z,16.07
2019-05-17T10:20:13.890Z,17.30
2019-05-17T10:22:45.339Z,14.87
2019-05-17T10:25:16.896Z,14.58
2019-05-17T10:27:49.815Z,11.65
2019-05-17T10:30:21.910Z,12.00
2019-05-17T10:32:53.905Z,19.10
2019-05-17T10:35:25.461Z,12.55
2019-05-17T10:37:59.341Z,17.65
2019-05-17T10:40:30.510Z,13.98
2019-05-17T10:43:01.960Z,19.50
2019-05-17T10:45:33.919Z,12.90
2019-05-17T10:48:05.681Z,21.90
2019-05-17T10:50:37.025Z,15.20
2019-05-17T10:53:10.033Z,18.32
2019-05-17T10:55:41.876Z,12.37
2019-05-17T10:58:13.524Z,12.63
2019-05-17T11:00:45.079Z,15.45
2019-05-17T11:03:20.378Z,21.57
2019-05-17T11:05:53.002Z,24.35
2019-05-17T11:08:24.559Z,19.00
2019-05-17T11:10:56.418Z,12.70
2019-05-17T11:13:28.281Z,16.27
2019-05-17T11:15:59.615Z,19.00
2019-05-17T11:18:31.681Z,14.75
2019-05-17T11:21:03.589Z,13.83
2019-05-17T11:23:35.197Z,16.85
2019-05-17T11:26:06.749Z,16.02
2019-05-17T11:28:39.643Z,15.75
2019-05-17T11:31:11.594Z,11.60
2019-05-17T11:33:43.461Z,13.93
2019-05-17T11:36:14.807Z,15.30
2019-05-17T11:38:46.456Z,16.45
2019-05-17T11:41:21.480Z,16.30
2019-05-17T11:43:51.543Z,17.15
2019-05-17T11:46:35.257Z,10.45
2019-05-17T11:48:56.870Z,11.70
2019-05-17T11:51:29.137Z,15.15
2019-05-17T11:54:01.198Z,18.25
2019-05-17T11:56:32.983Z,12.47
2019-05-17T11:59:04.619Z,12.33
2019-05-17T12:01:36.781Z,15.95
2019-05-17T12:04:08.434Z,10.32
2019-05-17T12:06:40.293Z,9.13
2019-05-17T12:09:12.152Z,14.10
2019-05-17T12:11:43.612Z,13.13
2019-05-17T12:14:15.262Z,11.65
2019-05-17T12:16:47.012Z,17.48
2019-05-17T12:19:18.464Z,20.27
2019-05-17T12:21:50.117Z,18.55
2019-05-17T12:24:21.467Z,16.12
2019-05-17T12:26:53.226Z,12.50
2019-05-17T12:29:25.183Z,9.15
2019-05-17T12:31:56.842Z,20.37
2019-05-17T12:34:28.771Z,13.58
2019-05-17T12:37:00.558Z,13.50
2019-05-17T12:39:32.223Z,10.08
2019-05-17T12:42:04.442Z,19.50
2019-05-17T12:44:37.296Z,12.65
2019-05-17T12:47:08.920Z,15.32
2019-05-17T12:49:40.890Z,20.30
2019-05-17T12:52:13.504Z,13.48
2019-05-17T12:54:44.908Z,14.05
2019-05-17T12:57:16.568Z,14.28
2019-05-17T12:59:48.430Z,16.62
2019-05-17T13:02:20.107Z,17.17
2019-05-17T13:04:52.367Z,14.80
2019-05-17T13:07:24.224Z,17.02
2019-05-17T13:09:55.864Z,15.05
2019-05-17T13:12:27.633Z,18.25
2019-05-17T13:14:59.080Z,15.32
2019-05-17T13:17:30.728Z,14.85
2019-05-17T13:20:03.544Z,12.93
2019-05-17T14:06:08.404Z,14.00
2019-05-17T14:08:40.123Z,17.20
2019-05-17T14:11:11.696Z,20.82
2019-05-17T14:13:43.239Z,12.05
2019-05-17T14:16:14.991Z,16.93
2019-05-17T14:21:56.088Z,12.53
2019-05-17T14:24:27.634Z,19.98
2019-05-17T14:26:59.598Z,13.93
2019-05-17T14:29:31.362Z,12.23
2019-05-17T14:32:03.510Z,17.82
2019-05-17T14:34:35.179Z,21.10
2019-05-17T14:37:07.610Z,14.58
2019-05-17T14:39:39.314Z,17.48
2019-05-17T14:42:11.068Z,10.60
2019-05-17T14:44:42.718Z,15.32
2019-05-17T14:47:14.676Z,13.80
2019-05-17T14:49:46.127Z,14.05
2019-05-17T14:52:17.582Z,17.55
2019-05-17T14:54:49.128Z,17.35
2019-05-17T14:57:21.424Z,12.93
2019-05-17T14:59:53.155Z,14.65
2019-05-17T15:02:25.719Z,16.93
2019-05-17T15:04:57.290Z,14.15
2019-05-17T15:07:29.152Z,16.67
2019-05-17T15:10:00.909Z,15.32
2019-05-17T15:12:32.566Z,14.07
2019-05-17T15:15:05.958Z,25.20
2019-05-17T15:17:37.586Z,12.20
2019-05-17T15:20:09.453Z,14.53
2019-05-17T15:22:40.920Z,14.55
2019-05-17T15:25:12.784Z,17.23
2019-05-17T15:27:45.882Z,16.70
2019-05-17T15:30:19.706Z,18.73
2019-05-17T15:32:51.443Z,14.28
2019-05-17T15:35:23.085Z,17.87
2019-05-17T15:37:54.744Z,15.93
2019-05-17T15:40:26.296Z,13.93
2019-05-17T15:42:58.154Z,15.38
2019-05-17T15:45:29.708Z,15.83
2019-05-17T15:48:01.574Z,14.20
2019-05-17T15:50:33.534Z,15.93
2019-05-17T15:53:05.698Z,19.40
2019-05-17T15:55:37.251Z,24.65
2019-05-17T15:58:10.647Z,21.00
2019-05-17T16:00:42.265Z,15.18
2019-05-17T16:03:14.214Z,19.27
2019-05-17T16:05:45.823Z,14.03
2019-05-17T16:08:17.984Z,12.60
2019-05-17T16:10:49.842Z,19.12
2019-05-17T16:13:21.498Z,18.45
2019-05-17T16:15:53.463Z,14.80
2019-05-17T16:18:25.013Z,14.75
2019-05-17T16:20:57.388Z,16.25
2019-05-17T16:23:29.035Z,18.45
2019-05-17T16:26:00.898Z,21.73
2019-05-17T16:28:32.550Z,22.00
2019-05-17T16:31:04.410Z,13.18
2019-05-17T16:33:36.271Z,16.97
2019-05-17T16:36:08.142Z,17.15
2019-05-17T16:38:39.586Z,18.20
2019-05-17T16:41:11.647Z,12.50
2019-05-17T16:43:43.201Z,13.62
2019-05-17T16:46:15.059Z,12.75
2019-05-17T16:48:46.817Z,18.25
2019-05-17T16:51:18.800Z,16.75
2019-05-17T16:53:50.533Z,15.88
2019-05-17T16:56:23.215Z,21.97
2019-05-17T16:58:55.282Z,17.48
2019-05-17T17:01:27.352Z,16.23
2019-05-17T17:03:58.998Z,22.82
2019-05-17T17:06:30.960Z,16.32
2019-05-17T17:09:02.411Z,13.05
2019-05-17T17:11:35.191Z,20.30
2019-05-17T17:14:07.257Z,19.92
2019-05-17T17:16:38.807Z,20.72
2019-05-17T17:19:10.566Z,15.78
2019-05-17T17:21:42.225Z,16.97
2019-05-17T17:24:13.769Z,14.63
2019-05-17T17:26:45.117Z,16.60
2019-05-17T17:29:17.190Z,21.80
2019-05-17T17:31:48.841Z,18.52
2019-05-17T17:34:20.391Z,16.62
2019-05-17T17:36:52.151Z,14.05
2019-05-17T17:39:23.802Z,14.85
2019-05-17T17:41:55.768Z,18.40
2019-05-17T17:44:27.422Z,21.12
2019-05-17T17:46:59.279Z,21.87
2019-05-17T17:49:31.139Z,15.93
2019-05-17T17:52:03.147Z,15.28
2019-05-17T17:54:34.554Z,14.87
2019-05-17T17:57:06.021Z,15.75
2019-05-17T17:59:37.762Z,17.50
2019-05-17T18:02:09.767Z,13.80
2019-05-17T18:04:41.284Z,23.47
2019-05-17T18:07:13.035Z,12.23
2019-05-17T18:09:44.904Z,12.98
2019-05-17T18:12:16.767Z,12.35
2019-05-17T18:14:48.412Z,15.10
2019-05-17T18:17:20.175Z,15.32
2019-05-17T18:19:52.239Z,18.40
2019-05-17T18:22:24.089Z,13.90
2019-05-17T18:24:55.948Z,15.50
2019-05-17T18:27:27.913Z,13.55
2019-05-17T18:29:59.572Z,16.23
2019-05-17T18:32:31.627Z,12.20
2019-05-17T18:35:04.417Z,14.68
2019-05-17T18:37:36.065Z,19.15
2019-05-17T18:40:07.740Z,13.40
2019-05-17T18:42:39.405Z,19.35
2019-05-17T18:45:11.410Z,13.72
2019-05-17T18:47:43.613Z,13.68
2019-05-17T18:50:16.799Z,14.80
2019-05-17T18:52:48.764Z,16.85
2019-05-17T18:55:20.320Z,14.47
2019-05-17T18:57:51.971Z,13.60
2019-05-17T19:00:23.932Z,18.25
2019-05-17T19:02:55.940Z,18.37
2019-05-17T19:05:27.855Z,11.63
2019-05-17T19:07:59.622Z,13.13
2019-05-17T19:10:31.472Z,11.55
2019-05-17T19:13:03.033Z,11.88
2019-05-17T19:15:34.882Z,16.42
2019-05-17T19:18:06.542Z,16.87
2019-05-17T19:20:38.397Z,13.78
2019-05-17T19:23:09.950Z,11.85
2019-05-17T19:25:42.747Z,13.95
2019-05-17T19:28:14.717Z,10.93
2019-05-17T19:30:46.455Z,10.82
2019-05-17T19:33:18.424Z,11.63
2019-05-17T19:35:49.976Z,11.55
2019-05-17T19:38:21.724Z,10.95
2019-05-17T19:40:53.398Z,12.23
2019-05-17T19:43:25.357Z,10.15
2019-05-17T19:45:56.892Z,13.00
2019-05-17T19:48:28.755Z,12.93
2019-05-17T19:51:00.325Z,9.43
2019-05-17T19:53:32.730Z,13.28
2019-05-17T19:56:04.232Z,12.07
2019-05-17T19:58:35.882Z,13.88
2019-05-17T20:01:07.865Z,10.20
2019-05-17T20:03:39.201Z,19.10
2019-05-17T20:06:10.855Z,12.85
2019-05-17T20:08:42.831Z,13.32
2019-05-17T20:11:14.791Z,16.17
2019-05-17T20:13:46.639Z,17.07
2019-05-17T20:16:18.289Z,13.28
2019-05-17T20:18:49.738Z,11.90
2019-05-17T20:23:51.510Z,16.82
2019-05-17T20:26:24.088Z,14.63
2019-05-17T20:28:55.949Z,12.70
2019-05-17T20:31:27.606Z,14.98
2019-05-17T20:34:00.179Z,10.53
2019-05-17T20:36:31.936Z,9.30
2019-05-17T20:39:04.818Z,9.15
2019-05-17T20:41:36.582Z,13.95
2019-05-17T20:44:08.129Z,10.68
2019-05-17T20:46:39.785Z,18.17
2019-05-17T20:49:11.439Z,12.75
2019-05-17T20:51:43.549Z,10.38
2019-05-17T20:54:14.953Z,10.98
2019-05-17T20:56:48.084Z,12.40
2019-05-17T20:59:20.029Z,12.05
2019-05-17T21:01:52.075Z,13.70
2019-05-17T21:04:23.623Z,10.70
2019-05-17T21:06:55.181Z,11.48
2019-05-17T21:09:26.830Z,15.40
2019-05-17T21:11:58.386Z,14.20
2019-05-17T21:14:30.148Z,9.15
2019-05-17T21:17:02.003Z,12.53
2019-05-17T21:19:33.554Z,11.63
2019-05-17T21:22:05.210Z,9.73
2019-05-17T21:24:36.675Z,12.37
2019-05-17T21:27:09.339Z,10.70
2019-05-17T21:29:41.710Z,9.88
2019-05-17T21:32:13.373Z,10.58
2019-05-17T21:34:44.950Z,9.73
2019-05-17T21:37:16.983Z,15.58
2019-05-17T21:39:48.538Z,9.60
2019-05-17T21:42:21.119Z,12.80
2019-05-17T21:44:52.569Z,12.00
2019-05-17T21:47:24.117Z,12.30
2019-05-17T21:49:56.792Z,19.23
2019-05-17T21:52:29.717Z,14.55
2019-05-17T21:55:01.129Z,15.30
2019-05-17T21:57:33.093Z,11.85
2019-05-17T22:00:07.847Z,11.43
2019-05-17T22:02:41.318Z,9.63
2019-05-17T22:05:12.938Z,19.98
2019-05-17T22:07:44.634Z,10.38
2019-05-17T22:10:16.277Z,10.98
2019-05-17T22:12:47.931Z,11.10
2019-05-17T22:15:20.514Z,11.35
2019-05-17T22:17:52.270Z,14.87
2019-05-17T22:20:23.878Z,12.07
2019-05-17T22:22:55.890Z,13.32
2019-05-17T22:25:27.537Z,12.03
2019-05-17T22:27:59.920Z,11.63
2019-05-17T22:30:31.668Z,9.13
2019-05-17T22:33:03.938Z,10.93
2019-05-17T22:35:35.502Z,8.63
2019-05-17T22:38:07.246Z,10.30
2019-05-17T22:40:38.804Z,8.88
2019-05-17T22:43:10.455Z,9.70
2019-05-17T22:45:42.031Z,9.18
2019-05-17T22:48:13.767Z,11.65
2019-05-17T22:50:46.753Z,11.55
2019-05-17T22:53:18.417Z,8.25
2019-05-17T22:55:50.372Z,7.83
2019-05-17T22:58:22.229Z,11.12
2019-05-17T23:00:53.882Z,11.53
2019-05-17T23:05:56.170Z,13.10
2019-05-17T23:08:27.830Z,9.03
2019-05-17T23:10:59.386Z,9.58
2019-05-17T23:16:06.506Z,16.47
2019-05-17T23:18:38.024Z,9.33
2019-05-17T23:21:09.582Z,13.48
2019-05-17T23:23:41.437Z,7.87
2019-05-17T23:26:13.098Z,9.75
2019-05-17T23:28:44.754Z,10.63
2019-05-17T23:31:16.201Z,8.38
2019-05-17T23:33:47.551Z,8.38
2019-05-17T23:36:19.310Z,9.95
2019-05-17T23:38:50.655Z,9.68
2019-05-17T23:41:22.320Z,10.38
2019-05-17T23:43:53.959Z,9.28
2019-05-17T23:46:25.205Z,8.55
2019-05-17T23:48:56.967Z,7.10
2019-05-17T23:51:28.515Z,7.83
2019-05-17T23:56:30.805Z,10.07
2019-05-17T23:59:03.892Z,10.03
